KSEE

Gillespie Field Airport

San Diego/El Cajon, California, USA
METAR KSEE 182047Z 29009KT 10SM SKC 30/19 A3000
Observed Flight Rules
Aug-18 @ 20:47 UTC (an hour ago) Visual Flight Rules
Wind Visibility Clouds
290° at 9 knots 10 miles
  • Clear skies
Temperatures Readings
Current 30°C / 86°F
Dewpoint 19°C / 66°F
Humidity 52%
Altimeter 30" Hg
Pressure 1016 hPa
Elevation 117
METAR KSEE 182047Z 29009KT 10SM SKC 30/19 A3000
Observed Flight Rules
Aug-18 @ 20:47 UTC
(an hour ago)
VFR
Wind Visibility
290° at 9 knots 10 miles
Clouds
  • Clear skies
Temperature Dewpoint
30°C / 86°F 19°C / 66°F
Humidity Altimeter Pressure
52% 30" Hg 1016 hPa